Time;durP1;ratioP1;P1;durP2;ratioP2;P2;SDS_P1;SDS_P2;PMS_P1;PMS_P2;Temp;Humidity;BMP_temperature;BMP_pressure;BME280_temperature;BME280_humidity;BME280_pressure;Samples;Min_cycle;Max_cycle;Signal;HPM_P1;HPM_P2
2022/07/24 00:01:58;;;;;;;4.18;1.50;;;22.80;94.40;;;;;;5090506;28;20243;-65
2022/07/24 00:04:25;;;;;;;2.33;1.40;;;22.80;94.50;;;;;;5083732;28;20191;-66
2022/07/24 00:06:51;;;;;;;5.23;1.40;;;22.80;94.30;;;;;;5089753;28;20193;-68
2022/07/24 00:09:18;;;;;;;3.03;1.50;;;22.80;93.90;;;;;;5075183;28;20198;-67
2022/07/24 00:11:46;;;;;;;3.50;1.52;;;22.70;93.70;;;;;;5077815;28;20198;-66
2022/07/24 00:14:12;;;;;;;2.60;1.57;;;22.70;93.60;;;;;;5087735;28;20298;-66
2022/07/24 00:16:39;;;;;;;5.37;1.87;;;22.70;93.90;;;;;;5087815;28;20210;-65
2022/07/24 00:19:05;;;;;;;3.37;1.63;;;22.70;93.30;;;;;;5088477;28;20267;-66
2022/07/24 00:21:32;;;;;;;3.03;1.50;;;22.70;92.90;;;;;;5084877;28;20236;-67
2022/07/24 00:23:59;;;;;;;4.70;1.60;;;22.70;92.80;;;;;;5086671;28;20261;-65
2022/07/24 00:26:25;;;;;;;2.40;1.40;;;22.70;92.70;;;;;;5087486;28;20302;-65
2022/07/24 00:28:51;;;;;;;5.75;1.60;;;22.60;92.60;;;;;;5079656;28;20194;-66
2022/07/24 00:31:18;;;;;;;3.40;1.57;;;22.60;92.40;;;;;;5071157;28;20913;-66
2022/07/24 00:33:48;;;;;;;4.15;1.30;;;22.70;92.30;;;;;;5087549;28;20217;-66
2022/07/24 00:36:16;;;;;;;2.60;1.43;;;22.60;92.40;;;;;;5088535;28;20186;-68
2022/07/24 00:38:43;;;;;;;3.73;1.40;;;22.70;92.30;;;;;;5085533;28;20198;-68
2022/07/24 00:41:10;;;;;;;5.00;1.60;;;22.70;92.10;;;;;;5086972;28;20655;-67
2022/07/24 00:44:05;;;;;;;2.13;1.33;;;22.60;91.80;;;;;;5087853;28;20198;-67
2022/07/24 00:46:33;;;;;;;1.60;1.50;;;22.70;92.20;;;;;;5072561;28;20194;-65
2022/07/24 00:49:03;;;;;;;2.97;1.60;;;22.70;91.70;;;;;;5069043;28;20252;-65
2022/07/24 00:51:29;;;;;;;2.57;1.50;;;22.70;91.40;;;;;;5073903;28;20863;-66
2022/07/24 00:53:55;;;;;;;3.33;1.50;;;22.70;91.60;;;;;;5085805;28;20221;-68
2022/07/24 00:56:22;;;;;;;2.20;1.33;;;22.70;91.50;;;;;;5078698;28;20571;-66
2022/07/24 00:58:49;;;;;;;2.87;1.70;;;22.70;91.60;;;;;;5061555;28;20194;-65
2022/07/24 01:01:16;;;;;;;3.57;1.40;;;22.70;91.50;;;;;;5086993;28;20184;-66
2022/07/24 01:03:42;;;;;;;2.95;1.52;;;22.70;91.70;;;;;;5089084;28;20197;-66
2022/07/24 01:06:09;;;;;;;2.97;1.35;;;22.70;91.10;;;;;;5070904;28;20677;-66
2022/07/24 01:08:37;;;;;;;2.87;1.67;;;22.80;91.00;;;;;;5086750;28;20262;-65
2022/07/24 01:11:05;;;;;;;4.93;1.80;;;22.80;90.60;;;;;;5089543;28;20265;-65
2022/07/24 01:13:32;;;;;;;3.53;1.70;;;22.80;90.40;;;;;;5075184;28;20331;-67
2022/07/24 01:15:59;;;;;;;4.85;1.70;;;22.80;90.60;;;;;;5087758;28;20585;-66
2022/07/24 01:18:26;;;;;;;5.30;1.53;;;22.80;90.50;;;;;;5083209;28;20190;-66
2022/07/24 01:20:52;;;;;;;2.57;1.63;;;22.80;90.30;;;;;;5088595;28;20185;-66
2022/07/24 01:23:19;;;;;;;3.67;1.57;;;22.80;90.50;;;;;;5082988;28;20206;-66
2022/07/24 01:25:45;;;;;;;5.28;1.63;;;22.80;90.50;;;;;;5081853;28;20286;-67
2022/07/24 01:28:11;;;;;;;3.53;1.70;;;22.80;90.20;;;;;;5086675;28;20204;-64
2022/07/24 01:30:38;;;;;;;2.97;1.40;;;22.80;89.80;;;;;;5089049;28;20194;-67
2022/07/24 01:33:04;;;;;;;2.75;1.20;;;22.90;89.70;;;;;;5084536;28;20224;-66
2022/07/24 01:35:30;;;;;;;3.05;1.60;;;22.90;89.50;;;;;;5087554;28;20255;-66
2022/07/24 01:37:57;;;;;;;2.22;1.40;;;22.90;89.90;;;;;;5078259;28;20174;-65
2022/07/24 01:40:23;;;;;;;4.57;1.40;;;23.00;89.50;;;;;;5086378;28;20635;-66
2022/07/24 01:42:50;;;;;;;5.93;1.50;;;23.00;89.50;;;;;;5088053;28;20193;-67
2022/07/24 01:45:17;;;;;;;5.77;2.00;;;23.00;88.30;;;;;;5086977;28;20202;-65
2022/07/24 01:47:44;;;;;;;7.00;1.53;;;23.10;87.60;;;;;;5086323;28;20198;-65
2022/07/24 01:50:12;;;;;;;5.20;1.60;;;23.20;87.80;;;;;;5088058;28;20181;-66
2022/07/24 01:52:39;;;;;;;2.22;1.27;;;23.20;87.60;;;;;;5064770;28;20287;-68
2022/07/24 01:55:07;;;;;;;3.93;1.47;;;23.20;87.70;;;;;;5087521;28;20189;-66
2022/07/24 01:57:36;;;;;;;6.63;1.50;;;23.20;88.10;;;;;;5085423;28;20304;-67
2022/07/24 02:00:08;;;;;;;3.17;1.60;;;23.20;88.10;;;;;;5088594;28;20198;-65
2022/07/24 02:02:35;;;;;;;4.53;1.45;;;23.20;88.20;;;;;;5087229;28;20633;-66
2022/07/24 02:05:01;;;;;;;2.10;1.40;;;23.10;88.30;;;;;;5053606;28;20197;-67
2022/07/24 02:07:29;;;;;;;2.00;1.30;;;23.10;87.50;;;;;;5069559;28;20193;-66
2022/07/24 02:09:56;;;;;;;6.85;1.80;;;23.10;87.80;;;;;;5066024;28;20190;-65
2022/07/24 02:12:23;;;;;;;3.90;1.70;;;23.10;87.20;;;;;;5068195;28;20320;-65
2022/07/24 02:14:49;;;;;;;5.50;1.60;;;23.10;87.10;;;;;;5086975;28;20186;-65
2022/07/24 02:17:16;;;;;;;5.20;1.83;;;23.10;86.90;;;;;;5054150;28;20212;-68
2022/07/24 02:19:43;;;;;;;3.30;1.40;;;23.10;86.60;;;;;;5071153;28;20190;-67
2022/07/24 02:22:09;;;;;;;5.88;1.80;;;23.10;87.10;;;;;;5067925;28;20284;-65
2022/07/24 02:24:36;;;;;;;2.58;1.40;;;23.00;87.10;;;;;;5087332;28;20685;-66
2022/07/24 02:27:02;;;;;;;3.40;1.42;;;23.00;85.80;;;;;;5052343;28;20665;-66
2022/07/24 02:29:29;;;;;;;6.40;1.55;;;23.10;86.60;;;;;;5068450;28;20753;-65
2022/07/24 02:31:55;;;;;;;4.67;1.60;;;23.10;86.50;;;;;;5079159;28;20322;-67
2022/07/24 02:34:22;;;;;;;5.13;1.30;;;23.10;86.40;;;;;;5084740;28;20193;-66
2022/07/24 02:36:48;;;;;;;3.13;1.50;;;23.10;85.90;;;;;;5076539;28;20189;-65
2022/07/24 02:39:14;;;;;;;3.63;1.57;;;23.10;85.40;;;;;;5075065;28;20210;-66
2022/07/24 02:41:41;;;;;;;4.47;1.50;;;23.10;85.50;;;;;;5085098;28;20185;-66
2022/07/24 02:44:07;;;;;;;1.67;1.27;;;23.10;86.10;;;;;;5084297;28;20214;-68
2022/07/24 02:46:34;;;;;;;2.45;1.42;;;23.10;86.40;;;;;;5074476;28;20183;-65
2022/07/24 02:49:00;;;;;;;4.93;1.50;;;23.00;86.30;;;;;;5067865;28;20178;-66
2022/07/24 02:51:26;;;;;;;3.67;1.60;;;23.00;86.10;;;;;;5049371;28;20813;-65
2022/07/24 02:53:52;;;;;;;3.30;1.47;;;22.90;85.90;;;;;;5082905;28;20237;-67
2022/07/24 02:56:18;;;;;;;8.10;1.73;;;22.80;85.60;;;;;;5072289;28;20193;-69
2022/07/24 02:58:46;;;;;;;4.28;1.40;;;22.80;85.70;;;;;;5071351;28;20269;-68
2022/07/24 03:01:13;;;;;;;3.30;1.25;;;22.80;86.20;;;;;;5078800;28;20195;-65
2022/07/24 03:03:39;;;;;;;3.33;1.52;;;22.80;86.10;;;;;;5053456;28;20227;-69
2022/07/24 03:06:06;;;;;;;3.23;1.40;;;22.80;85.90;;;;;;5090086;28;20840;-66
2022/07/24 03:08:32;;;;;;;2.50;1.40;;;22.80;86.00;;;;;;5071148;28;20249;-66
2022/07/24 03:10:58;;;;;;;3.15;1.50;;;22.80;85.80;;;;;;5090710;28;20194;-66
2022/07/24 03:13:26;;;;;;;3.47;1.20;;;22.70;86.20;;;;;;5091845;28;20213;-65
2022/07/24 03:15:52;;;;;;;3.13;1.42;;;22.70;87.10;;;;;;5087151;28;20209;-66
2022/07/24 03:18:18;;;;;;;4.22;1.70;;;22.80;86.60;;;;;;5088186;28;20241;-66
2022/07/24 03:20:44;;;;;;;5.80;1.50;;;22.80;86.70;;;;;;5089818;28;20650;-66
2022/07/24 03:23:11;;;;;;;2.03;1.20;;;22.70;87.80;;;;;;5077418;28;20194;-66
2022/07/24 03:25:37;;;;;;;3.50;1.40;;;22.70;87.10;;;;;;5068798;28;20207;-67
2022/07/24 03:28:04;;;;;;;4.07;1.20;;;22.70;87.30;;;;;;5076476;28;20194;-67
2022/07/24 03:30:31;;;;;;;1.67;1.30;;;22.80;88.10;;;;;;5073451;28;20281;-67
2022/07/24 03:33:01;;;;;;;4.03;1.30;;;22.80;87.60;;;;;;5082891;28;20224;-68
2022/07/24 03:35:28;;;;;;;2.00;1.30;;;22.80;87.60;;;;;;5090833;28;20190;-68
2022/07/24 03:37:54;;;;;;;2.20;1.40;;;22.80;87.70;;;;;;5066216;28;20186;-67
2022/07/24 03:40:21;;;;;;;1.40;1.15;;;22.80;88.00;;;;;;5086200;28;20278;-66
2022/07/24 03:42:50;;;;;;;1.27;1.10;;;22.80;88.00;;;;;;5087917;28;20550;-68
2022/07/24 03:45:17;;;;;;;5.30;1.50;;;22.80;88.30;;;;;;5057492;28;20200;-67
2022/07/24 03:47:44;;;;;;;2.10;1.30;;;22.80;88.70;;;;;;5070770;28;20192;-67
2022/07/24 03:50:11;;;;;;;2.97;1.37;;;22.80;88.40;;;;;;5069101;28;20222;-65
2022/07/24 03:52:37;;;;;;;6.60;1.40;;;22.80;88.30;;;;;;5069508;28;20674;-67
2022/07/24 03:55:04;;;;;;;5.60;1.43;;;22.80;87.80;;;;;;5070437;28;20190;-66
2022/07/24 03:57:31;;;;;;;2.53;1.17;;;22.90;88.30;;;;;;5090491;28;20990;-67
2022/07/24 03:59:58;;;;;;;4.73;1.50;;;22.90;88.30;;;;;;5086657;28;20186;-67
2022/07/24 04:02:24;;;;;;;5.93;1.50;;;22.90;88.50;;;;;;5089598;28;20186;-66
2022/07/24 04:04:50;;;;;;;1.90;1.50;;;22.90;89.00;;;;;;5090638;28;20190;-65
2022/07/24 04:07:17;;;;;;;7.18;1.50;;;23.00;89.30;;;;;;5089135;28;20674;-67
2022/07/24 04:09:43;;;;;;;2.67;1.52;;;23.00;89.50;;;;;;5069107;28;20271;-66
2022/07/24 04:12:09;;;;;;;2.20;1.40;;;23.00;90.20;;;;;;5088475;28;20222;-66
2022/07/24 04:14:36;;;;;;;4.60;1.40;;;22.90;90.00;;;;;;5077570;28;20182;-65
2022/07/24 04:17:02;;;;;;;3.20;1.50;;;22.90;90.20;;;;;;5083318;28;20632;-66
2022/07/24 04:19:29;;;;;;;2.33;1.33;;;22.90;90.10;;;;;;5088903;28;20183;-66
2022/07/24 04:21:55;;;;;;;4.50;1.30;;;22.90;90.20;;;;;;5087944;28;20186;-65
2022/07/24 04:24:22;;;;;;;2.50;1.30;;;22.90;90.30;;;;;;5082814;28;20198;-66
2022/07/24 04:26:48;;;;;;;4.07;1.40;;;23.00;90.30;;;;;;5069125;28;20281;-67
2022/07/24 04:29:14;;;;;;;1.93;1.30;;;23.00;90.50;;;;;;5090160;28;20197;-65
2022/07/24 04:31:41;;;;;;;7.40;1.40;;;23.00;90.70;;;;;;5072272;28;20608;-66
2022/07/24 04:34:07;;;;;;;3.92;1.50;;;23.10;91.00;;;;;;5088284;28;20747;-65
2022/07/24 04:36:33;;;;;;;1.93;1.27;;;23.10;90.40;;;;;;5073089;28;20201;-66
2022/07/24 04:39:00;;;;;;;5.13;1.50;;;23.20;90.60;;;;;;5085602;28;20190;-66
2022/07/24 04:41:26;;;;;;;1.90;1.20;;;23.20;90.70;;;;;;5085541;28;20197;-65
2022/07/24 04:43:52;;;;;;;2.33;1.40;;;23.30;91.00;;;;;;5089866;28;20179;-65
2022/07/24 04:46:19;;;;;;;3.97;1.80;;;23.30;90.90;;;;;;5064972;28;20273;-65
2022/07/24 04:48:49;;;;;;;2.67;1.50;;;23.40;91.20;;;;;;5086182;28;20234;-65
2022/07/24 04:51:16;;;;;;;9.38;1.40;;;23.60;91.30;;;;;;5056263;28;20189;-67
2022/07/24 04:53:43;;;;;;;4.47;1.40;;;23.70;90.90;;;;;;5074263;28;20210;-65
2022/07/24 04:56:09;;;;;;;1.98;1.30;;;23.80;91.30;;;;;;5079267;28;20198;-67
2022/07/24 04:58:35;;;;;;;3.17;1.42;;;23.80;90.80;;;;;;5073705;28;20190;-66
2022/07/24 05:01:02;;;;;;;2.42;1.40;;;23.90;91.20;;;;;;5085020;28;20190;-68
2022/07/24 05:03:28;;;;;;;4.03;1.50;;;23.90;91.20;;;;;;5088065;28;20206;-66
2022/07/24 05:05:55;;;;;;;5.57;1.50;;;24.00;91.40;;;;;;5089142;28;20220;-67
2022/07/24 05:08:21;;;;;;;2.70;1.63;;;24.00;91.10;;;;;;5086625;28;20215;-66
2022/07/24 05:10:47;;;;;;;1.63;1.40;;;24.10;90.50;;;;;;5078050;28;20700;-66
2022/07/24 05:13:15;;;;;;;3.25;1.40;;;24.20;90.00;;;;;;5086787;28;20214;-66
2022/07/24 05:15:44;;;;;;;4.90;1.77;;;24.30;91.00;;;;;;5064841;28;20651;-66
2022/07/24 05:18:10;;;;;;;7.85;1.58;;;24.40;90.70;;;;;;5072652;28;20209;-67
2022/07/24 05:20:37;;;;;;;3.15;1.52;;;24.50;91.40;;;;;;5086460;28;20186;-66
2022/07/24 05:23:03;;;;;;;2.25;1.45;;;24.60;91.10;;;;;;5084837;28;20183;-66
2022/07/24 05:25:30;;;;;;;3.40;1.70;;;24.70;90.90;;;;;;5085998;28;20237;-66
2022/07/24 05:27:56;;;;;;;7.30;1.60;;;24.70;91.50;;;;;;5067772;28;20211;-68
2022/07/24 05:30:22;;;;;;;2.03;1.25;;;24.70;91.80;;;;;;5067402;28;20193;-67
2022/07/24 05:32:48;;;;;;;2.67;1.50;;;24.70;91.70;;;;;;5064069;28;20218;-67
2022/07/24 05:35:15;;;;;;;8.23;1.50;;;24.70;90.90;;;;;;5085023;28;20196;-67
2022/07/24 05:37:41;;;;;;;2.88;1.38;;;24.80;90.00;;;;;;5082598;28;20232;-66
2022/07/24 05:40:08;;;;;;;2.72;1.52;;;24.90;89.50;;;;;;5040081;28;20236;-67
2022/07/24 05:42:35;;;;;;;1.70;1.17;;;25.00;88.60;;;;;;5062677;28;20193;-66
2022/07/24 05:45:01;;;;;;;1.70;1.35;;;25.10;88.50;;;;;;5087800;28;20654;-69
2022/07/24 05:47:27;;;;;;;2.80;1.45;;;25.10;89.20;;;;;;5063568;28;20542;-66
2022/07/24 05:49:54;;;;;;;4.30;1.70;;;25.10;90.50;;;;;;5059082;28;20186;-66
2022/07/24 05:52:20;;;;;;;3.50;1.73;;;25.20;89.20;;;;;;5075121;28;20240;-67
2022/07/24 05:54:46;;;;;;;2.05;1.40;;;25.20;90.50;;;;;;5068546;28;20196;-67
2022/07/24 05:57:13;;;;;;;3.08;1.48;;;25.30;89.10;;;;;;5087865;28;20327;-66
2022/07/24 05:59:39;;;;;;;5.55;1.70;;;25.30;88.80;;;;;;5051241;28;20182;-68
2022/07/24 06:02:05;;;;;;;5.57;1.35;;;25.50;88.20;;;;;;5067828;28;20531;-68
2022/07/24 06:04:32;;;;;;;12.30;1.60;;;25.60;86.50;;;;;;5067429;28;20221;-63
2022/07/24 06:06:59;;;;;;;4.00;1.40;;;25.80;86.60;;;;;;5072476;28;20201;-65
2022/07/24 06:09:25;;;;;;;3.33;1.58;;;26.00;86.60;;;;;;5080197;28;20204;-64
2022/07/24 06:11:51;;;;;;;2.45;1.38;;;26.00;88.40;;;;;;5086889;28;20191;-63
2022/07/24 06:14:18;;;;;;;3.13;1.63;;;26.00;88.30;;;;;;5084857;28;20212;-64
2022/07/24 06:16:44;;;;;;;7.22;2.15;;;26.00;88.00;;;;;;5080117;28;20202;-67
2022/07/24 06:19:10;;;;;;;4.55;1.65;;;26.00;87.70;;;;;;5084193;28;20257;-64
2022/07/24 06:21:36;;;;;;;3.10;1.50;;;26.10;86.80;;;;;;5081957;28;20297;-64
2022/07/24 06:24:03;;;;;;;2.75;1.63;;;26.20;86.50;;;;;;5064451;28;20222;-64
2022/07/24 06:26:29;;;;;;;5.63;1.50;;;26.30;86.70;;;;;;5086365;28;20209;-63
2022/07/24 06:28:55;;;;;;;7.32;1.38;;;26.40;85.50;;;;;;5087985;28;20539;-63
2022/07/24 06:31:22;;;;;;;5.57;1.90;;;26.50;87.50;;;;;;5087460;28;20194;-64
2022/07/24 06:33:48;;;;;;;5.93;1.35;;;26.70;84.00;;;;;;5085562;28;20485;-65
2022/07/24 06:36:14;;;;;;;5.22;1.65;;;26.70;84.80;;;;;;5068557;28;20217;-66
2022/07/24 06:38:41;;;;;;;2.95;1.40;;;26.80;81.40;;;;;;5063783;28;20186;-65
2022/07/24 06:41:07;;;;;;;5.65;1.60;;;26.90;84.30;;;;;;5069464;28;20644;-64
2022/07/24 06:43:34;;;;;;;3.83;1.50;;;27.00;82.00;;;;;;5091092;28;20186;-64
2022/07/24 06:46:00;;;;;;;2.75;1.63;;;27.10;84.60;;;;;;5089655;28;20191;-66
2022/07/24 06:48:26;;;;;;;3.67;1.50;;;27.20;81.80;;;;;;5086203;28;20587;-64
2022/07/24 06:50:53;;;;;;;2.85;1.50;;;27.40;83.10;;;;;;5087319;28;20762;-66
2022/07/24 06:53:19;;;;;;;6.45;1.95;;;27.40;83.90;;;;;;5082495;28;20275;-65
2022/07/24 06:55:46;;;;;;;7.57;1.45;;;27.60;82.50;;;;;;5090698;28;20243;-66
2022/07/24 06:58:13;;;;;;;4.07;1.30;;;27.70;82.50;;;;;;5070682;28;20178;-66
2022/07/24 07:00:40;;;;;;;2.00;1.52;;;27.80;82.50;;;;;;5088095;28;20190;-64
2022/07/24 07:03:06;;;;;;;7.45;1.60;;;28.00;82.30;;;;;;5086649;28;20289;-65
2022/07/24 07:05:32;;;;;;;6.22;1.50;;;28.20;82.10;;;;;;5070056;28;20251;-66
2022/07/24 07:08:01;;;;;;;4.90;1.67;;;28.20;81.90;;;;;;5072891;28;20201;-66
2022/07/24 07:10:28;;;;;;;11.00;1.92;;;28.30;81.90;;;;;;5088983;28;20197;-66
2022/07/24 07:12:54;;;;;;;4.97;1.85;;;28.40;80.40;;;;;;5088407;28;20285;-69
2022/07/24 07:15:20;;;;;;;2.90;1.50;;;28.70;79.90;;;;;;5071625;28;20587;-64
2022/07/24 07:17:47;;;;;;;3.60;1.88;;;28.90;80.60;;;;;;5082864;28;20206;-64
2022/07/24 07:20:14;;;;;;;3.20;1.60;;;29.00;80.40;;;;;;5054314;28;20191;-63
2022/07/24 07:22:42;;;;;;;3.28;1.73;;;29.20;78.90;;;;;;5055287;28;20817;-67
2022/07/24 07:25:10;;;;;;;4.22;1.90;;;29.30;79.30;;;;;;5070873;28;20190;-66
2022/07/24 07:27:39;;;;;;;4.95;1.50;;;29.20;81.00;;;;;;5084989;28;20688;-66
2022/07/24 07:30:07;;;;;;;6.93;1.70;;;29.40;79.10;;;;;;5086727;28;20276;-66
2022/07/24 07:32:33;;;;;;;5.55;1.60;;;29.50;77.80;;;;;;5051038;28;20220;-65
2022/07/24 07:35:00;;;;;;;7.70;1.70;;;29.50;79.30;;;;;;5063727;28;20260;-68
2022/07/24 07:37:26;;;;;;;3.65;1.45;;;29.60;77.60;;;;;;5090354;28;20178;-67
2022/07/24 07:39:52;;;;;;;3.58;1.67;;;29.70;77.20;;;;;;5091277;28;20189;-67
2022/07/24 07:42:19;;;;;;;2.65;1.80;;;29.90;77.50;;;;;;5055320;28;20186;-67
2022/07/24 07:44:47;;;;;;;5.88;1.73;;;30.00;76.90;;;;;;5087991;28;20190;-66
2022/07/24 07:47:14;;;;;;;4.95;1.60;;;30.20;76.40;;;;;;5087131;28;20197;-67
2022/07/24 07:49:40;;;;;;;6.00;1.80;;;30.20;77.20;;;;;;5070445;28;20763;-65
2022/07/24 07:52:07;;;;;;;7.28;1.77;;;30.30;76.00;;;;;;5091045;28;20232;-66
2022/07/24 07:54:33;;;;;;;6.72;1.88;;;30.30;76.30;;;;;;5089757;28;20704;-66
2022/07/24 07:57:00;;;;;;;3.30;1.50;;;30.40;76.00;;;;;;5089579;28;20308;-67
2022/07/24 07:59:26;;;;;;;8.40;1.58;;;30.50;74.00;;;;;;5064542;28;20205;-67
2022/07/24 08:01:52;;;;;;;6.95;1.58;;;30.80;74.10;;;;;;5087548;28;20194;-66
2022/07/24 08:04:19;;;;;;;6.07;1.65;;;30.80;74.10;;;;;;5086751;28;20178;-68
2022/07/24 08:06:45;;;;;;;7.25;1.90;;;30.80;74.50;;;;;;5070903;28;20190;-66
2022/07/24 08:09:11;;;;;;;4.03;1.70;;;31.00;73.10;;;;;;5083105;28;20202;-66
2022/07/24 08:11:38;;;;;;;4.80;1.63;;;31.20;72.50;;;;;;5066122;28;20567;-68
2022/07/24 08:14:05;;;;;;;3.33;1.40;;;31.30;72.80;;;;;;5081858;28;20250;-68
2022/07/24 08:16:32;;;;;;;5.63;1.55;;;31.30;72.50;;;;;;5083168;28;20292;-67
2022/07/24 08:18:58;;;;;;;8.05;1.67;;;31.50;72.30;;;;;;5073409;28;20190;-67
2022/07/24 08:21:25;;;;;;;5.35;1.38;;;31.80;67.10;;;;;;5069510;28;20194;-68
2022/07/24 08:23:54;;;;;;;6.22;1.73;;;31.90;65.70;;;;;;5084612;28;20193;-66
2022/07/24 08:26:20;;;;;;;4.40;2.22;;;32.00;69.60;;;;;;5084750;28;20532;-67
2022/07/24 08:28:46;;;;;;;6.50;1.60;;;32.20;68.40;;;;;;5068464;28;20191;-67
2022/07/24 08:31:13;;;;;;;4.50;1.67;;;32.20;68.70;;;;;;5085576;28;20196;-66
2022/07/24 08:33:41;;;;;;;3.88;1.70;;;32.30;66.90;;;;;;5053844;28;20213;-65
2022/07/24 08:36:07;;;;;;;10.43;1.90;;;32.40;66.60;;;;;;5073437;28;20672;-66
2022/07/24 08:38:34;;;;;;;6.53;1.73;;;32.50;66.20;;;;;;5079826;28;20190;-67
2022/07/24 08:41:00;;;;;;;2.85;1.40;;;32.60;65.90;;;;;;5088289;28;20778;-64
2022/07/24 08:43:27;;;;;;;5.28;1.50;;;32.70;64.10;;;;;;5070082;28;20190;-66
2022/07/24 08:45:56;;;;;;;5.18;1.50;;;32.60;63.80;;;;;;5077684;28;20536;-64
2022/07/24 08:48:27;;;;;;;8.57;1.73;;;32.80;64.00;;;;;;5063427;28;20678;-64
2022/07/24 08:50:54;;;;;;;6.13;1.42;;;33.10;63.50;;;;;;5077541;28;20213;-65
2022/07/24 08:53:23;;;;;;;6.80;1.20;;;33.20;60.70;;;;;;5048176;28;20218;-64
2022/07/24 08:55:50;;;;;;;5.03;1.25;;;33.30;59.50;;;;;;5088283;28;20175;-64
2022/07/24 08:58:16;;;;;;;4.78;1.67;;;33.50;59.60;;;;;;5078321;28;20216;-64
2022/07/24 09:00:45;;;;;;;5.57;1.42;;;33.50;58.90;;;;;;5081685;28;20274;-65
2022/07/24 09:03:12;;;;;;;5.80;1.30;;;33.50;59.70;;;;;;5068982;28;20223;-64
2022/07/24 09:05:59;;;;;;;6.50;1.60;;;33.80;58.10;;;;;;5088042;28;20281;-66
2022/07/24 09:08:25;;;;;;;3.53;1.38;;;33.80;60.10;;;;;;5081608;28;20186;-64
2022/07/24 09:11:04;;;;;;;6.30;1.70;;;33.90;60.10;;;;;;5064648;28;20243;-65
2022/07/24 09:16:24;;;;;;;3.35;1.50;;;34.10;58.80;;;;;;5080582;28;20206;-67
2022/07/24 09:19:07;;;;;;;2.72;1.38;;;34.20;57.20;;;;;;5084789;28;20186;-65
2022/07/24 09:21:44;;;;;;;6.35;1.70;;;34.20;58.10;;;;;;5077299;28;20186;-65
2022/07/24 09:24:19;;;;;;;3.42;1.60;;;34.40;57.30;;;;;;5067183;28;20204;-65
2022/07/24 09:26:52;;;;;;;5.43;1.60;;;34.40;59.50;;;;;;5064465;28;20198;-66
2022/07/24 09:29:22;;;;;;;5.68;1.83;;;34.50;58.30;;;;;;5068788;28;20308;-64
2022/07/24 09:32:01;;;;;;;5.68;1.65;;;34.40;58.70;;;;;;5070143;28;20547;-65
2022/07/24 09:34:38;;;;;;;7.38;1.65;;;34.40;58.70;;;;;;5069442;28;20201;-64
2022/07/24 09:37:08;;;;;;;3.75;1.70;;;34.50;58.90;;;;;;5080285;28;20178;-64
2022/07/24 09:39:37;;;;;;;5.55;1.48;;;34.60;58.80;;;;;;5067879;28;20493;-65
2022/07/24 09:42:06;;;;;;;7.43;1.60;;;34.80;59.00;;;;;;5077802;28;20505;-64
2022/07/24 09:44:34;;;;;;;2.78;1.50;;;35.00;57.90;;;;;;5063780;28;20649;-65
2022/07/24 09:47:09;;;;;;;5.57;1.65;;;35.00;57.80;;;;;;5080071;28;20186;-64
2022/07/24 09:49:39;;;;;;;5.97;1.48;;;35.10;57.10;;;;;;5078945;28;20211;-64
2022/07/24 09:52:05;;;;;;;6.53;1.60;;;35.10;56.70;;;;;;5066723;28;20692;-63
2022/07/24 09:54:41;;;;;;;4.70;1.60;;;35.10;56.00;;;;;;5086507;28;20251;-63
2022/07/24 09:57:30;;;;;;;4.50;1.58;;;35.10;56.40;;;;;;5061055;28;20188;-64
2022/07/24 10:00:04;;;;;;;4.72;1.50;;;35.20;56.80;;;;;;5062219;28;20308;-64
2022/07/24 10:02:34;;;;;;;4.75;1.42;;;35.30;56.60;;;;;;5078906;28;20196;-65
2022/07/24 10:05:03;;;;;;;5.03;1.67;;;35.40;58.00;;;;;;5082917;28;20245;-64
2022/07/24 10:07:30;;;;;;;2.58;1.38;;;35.50;57.00;;;;;;5085884;28;20201;-65
2022/07/24 10:09:59;;;;;;;3.97;1.60;;;35.50;56.20;;;;;;5055377;28;20194;-66
2022/07/24 10:12:30;;;;;;;2.17;1.50;;;35.40;55.40;;;;;;5082476;28;20641;-67
2022/07/24 10:14:59;;;;;;;3.47;1.70;;;35.50;56.10;;;;;;5067547;28;20226;-66
2022/07/24 10:17:54;;;;;;;7.65;1.40;;;35.50;55.50;;;;;;5080374;28;20218;-66
2022/07/24 10:20:43;;;;;;;4.38;1.33;;;35.70;55.90;;;;;;5079146;28;20193;-65
2022/07/24 10:23:37;;;;;;;3.33;1.50;;;35.60;55.40;;;;;;5058030;28;20284;-64
2022/07/24 10:26:09;;;;;;;2.50;1.20;;;35.70;55.50;;;;;;5067244;28;20277;-64
2022/07/24 10:28:41;;;;;;;2.60;1.27;;;35.70;55.50;;;;;;5065143;28;20197;-64
2022/07/24 10:31:15;;;;;;;6.47;1.70;;;35.90;55.90;;;;;;5075912;28;20198;-65
2022/07/24 10:33:51;;;;;;;9.13;1.35;;;35.80;54.70;;;;;;5084032;28;20294;-64
2022/07/24 10:36:31;;;;;;;6.25;2.05;;;35.80;54.50;;;;;;5065303;28;20208;-65
2022/07/24 10:39:12;;;;;;;3.95;1.58;;;35.70;54.10;;;;;;5073941;28;20668;-65
2022/07/24 10:41:39;;;;;;;3.15;1.60;;;35.60;54.60;;;;;;5061350;28;20236;-67
2022/07/24 10:44:20;;;;;;;3.67;1.40;;;35.50;55.00;;;;;;5083206;28;20251;-66
2022/07/24 10:47:04;;;;;;;5.40;1.63;;;35.50;53.30;;;;;;5081799;28;20214;-64
2022/07/24 10:49:49;;;;;;;12.63;1.60;;;35.50;53.90;;;;;;5072358;28;20335;-63
2022/07/24 10:52:27;;;;;;;8.60;1.63;;;35.60;53.10;;;;;;5049577;28;20185;-65
2022/07/24 10:55:26;;;;;;;3.45;1.60;;;35.60;52.70;;;;;;5049984;28;20239;-64
2022/07/24 10:58:00;;;;;;;2.78;1.50;;;35.50;54.60;;;;;;5067241;28;20224;-64
2022/07/24 11:00:40;;;;;;;6.03;1.50;;;35.50;52.80;;;;;;5068088;28;20183;-65
2022/07/24 11:03:24;;;;;;;4.47;1.67;;;35.30;52.80;;;;;;5069116;28;20205;-63
2022/07/24 11:06:11;;;;;;;2.35;1.45;;;35.30;53.50;;;;;;5088342;28;20295;-64
2022/07/24 11:08:45;;;;;;;4.25;1.33;;;35.40;52.20;;;;;;5086537;28;20178;-66
2022/07/24 11:11:15;;;;;;;3.90;1.60;;;35.30;51.30;;;;;;5069930;28;20174;-66
2022/07/24 11:13:46;;;;;;;3.28;1.27;;;35.20;53.30;;;;;;5086484;28;20293;-65
2022/07/24 11:16:15;;;;;;;8.52;1.85;;;35.20;52.20;;;;;;5068757;28;20238;-65
2022/07/24 11:19:02;;;;;;;6.63;2.15;;;35.20;52.20;;;;;;5090352;28;20201;-66
2022/07/24 11:21:40;;;;;;;3.13;1.60;;;35.20;51.30;;;;;;5092020;28;20192;-64
2022/07/24 11:24:20;;;;;;;3.78;1.42;;;35.10;53.20;;;;;;5073189;28;20178;-65
2022/07/24 11:26:58;;;;;;;2.83;1.58;;;35.20;51.70;;;;;;5091197;28;20194;-65
2022/07/24 11:29:36;;;;;;;8.23;1.58;;;35.20;51.20;;;;;;5090314;28;20212;-64
2022/07/24 11:32:14;;;;;;;2.97;1.52;;;35.20;51.90;;;;;;5089882;28;20200;-66
2022/07/24 11:34:46;;;;;;;4.85;1.58;;;35.20;52.10;;;;;;5091179;28;20210;-65
2022/07/24 11:37:13;;;;;;;7.85;1.60;;;35.10;51.40;;;;;;5055725;28;20181;-66
2022/07/24 11:39:44;;;;;;;5.50;1.80;;;35.10;50.50;;;;;;5091368;28;20182;-67
2022/07/24 11:42:14;;;;;;;4.35;1.30;;;35.10;50.10;;;;;;5079090;28;20232;-63
2022/07/24 11:44:49;;;;;;;4.13;1.33;;;35.00;51.30;;;;;;5052505;28;20187;-64
2022/07/24 11:47:27;;;;;;;3.67;1.70;;;34.90;51.90;;;;;;5082293;28;20198;-64
2022/07/24 11:50:06;;;;;;;5.57;1.60;;;34.80;50.90;;;;;;5089475;28;20182;-63
2022/07/24 11:52:40;;;;;;;4.15;1.58;;;34.90;50.70;;;;;;5089666;28;20296;-65
2022/07/24 11:55:19;;;;;;;5.72;1.55;;;34.90;51.10;;;;;;5072753;28;20178;-64
2022/07/24 11:57:56;;;;;;;2.17;1.40;;;35.00;51.40;;;;;;5072089;28;20209;-65
2022/07/24 12:00:26;;;;;;;3.88;1.60;;;34.90;50.40;;;;;;5091282;28;20541;-64
2022/07/24 12:02:57;;;;;;;3.45;1.48;;;34.90;51.10;;;;;;5089419;28;20719;-63
2022/07/24 12:05:31;;;;;;;5.18;1.40;;;34.80;51.60;;;;;;5091176;28;20206;-65
2022/07/24 12:08:03;;;;;;;5.78;1.40;;;34.80;51.50;;;;;;5071645;28;20188;-66
2022/07/24 12:10:30;;;;;;;6.97;1.55;;;34.70;50.90;;;;;;5056186;28;20256;-64
2022/07/24 12:12:57;;;;;;;3.58;1.30;;;34.80;50.90;;;;;;5090795;28;20339;-65
2022/07/24 12:15:26;;;;;;;4.57;1.48;;;34.70;50.60;;;;;;5090623;28;20178;-64
2022/07/24 12:18:09;;;;;;;6.10;1.45;;;34.70;51.90;;;;;;5071074;28;20949;-65
2022/07/24 12:20:43;;;;;;;7.40;1.50;;;34.80;50.90;;;;;;5072436;28;20205;-64
2022/07/24 12:23:16;;;;;;;5.10;1.45;;;34.70;51.50;;;;;;5090707;28;20673;-66
2022/07/24 12:25:44;;;;;;;6.47;1.65;;;34.80;50.40;;;;;;5072067;28;20190;-65
2022/07/24 12:28:17;;;;;;;2.05;1.25;;;34.70;51.00;;;;;;5089693;28;20260;-64
2022/07/24 12:30:53;;;;;;;7.22;1.90;;;34.70;50.10;;;;;;5090357;28;20856;-65
2022/07/24 12:33:29;;;;;;;6.20;1.40;;;34.70;51.10;;;;;;5088341;28;20221;-64
2022/07/24 12:36:15;;;;;;;10.05;1.58;;;34.70;50.30;;;;;;5071920;28;20178;-66
2022/07/24 12:38:54;;;;;;;4.38;1.30;;;34.50;50.90;;;;;;5090161;28;20170;-64
2022/07/24 12:41:25;;;;;;;4.07;1.30;;;34.40;50.80;;;;;;5055064;28;20181;-66
2022/07/24 12:44:05;;;;;;;6.82;1.35;;;34.50;50.70;;;;;;5090220;28;20884;-64
2022/07/24 12:46:38;;;;;;;9.05;1.40;;;34.40;50.50;;;;;;5084408;28;20191;-64
2022/07/24 12:49:18;;;;;;;4.55;1.65;;;34.30;50.50;;;;;;5072536;28;20185;-66
2022/07/24 12:51:49;;;;;;;8.13;1.45;;;34.30;50.80;;;;;;5069898;28;20540;-66
2022/07/24 12:54:31;;;;;;;2.53;1.20;;;34.30;50.10;;;;;;5068098;28;20217;-64
2022/07/24 12:57:01;;;;;;;4.40;1.60;;;34.20;50.60;;;;;;5084737;28;20237;-65
2022/07/24 12:59:37;;;;;;;4.55;1.20;;;34.30;49.70;;;;;;5069355;28;20270;-66